createdAt,value
2023-11-03T00:00:39.133Z,0.00
2023-11-03T00:03:09.388Z,0.45
2023-11-03T00:05:39.762Z,1.03
2023-11-03T00:08:07.689Z,0.00
2023-11-03T00:10:36.317Z,1.85
2023-11-03T00:13:04.130Z,1.80
2023-11-03T00:15:35.261Z,0.10
2023-11-03T00:18:03.177Z,0.10
2023-11-03T00:20:31.041Z,0.30
2023-11-03T00:23:01.201Z,0.20
2023-11-03T00:25:29.039Z,1.27
2023-11-03T00:27:56.930Z,0.28
2023-11-03T00:30:24.808Z,0.20
2023-11-03T00:32:52.733Z,0.10
2023-11-03T00:35:23.661Z,0.25
2023-11-03T00:37:52.981Z,1.30
2023-11-03T00:40:24.639Z,0.57
2023-11-03T00:42:52.788Z,0.20
2023-11-03T00:45:21.612Z,0.30
2023-11-03T00:47:51.163Z,0.40
2023-11-03T00:50:19.215Z,1.63
2023-11-03T00:52:47.084Z,0.50
2023-11-03T00:55:15.075Z,3.17
2023-11-03T00:57:43.994Z,1.30
2023-11-03T01:00:15.317Z,0.38
2023-11-03T01:02:44.958Z,1.73
2023-11-03T01:05:15.790Z,3.05
2023-11-03T01:07:44.243Z,0.35
2023-11-03T01:10:16.993Z,1.80
2023-11-03T01:12:47.937Z,0.68
2023-11-03T01:15:16.570Z,1.52
2023-11-03T01:17:44.696Z,2.63
2023-11-03T01:20:21.044Z,1.77
2023-11-03T01:22:52.240Z,0.80
2023-11-03T01:25:20.209Z,1.10
2023-11-03T01:27:48.152Z,1.70
2023-11-03T01:30:18.668Z,1.35
2023-11-03T01:32:46.785Z,0.57
2023-11-03T01:35:14.909Z,3.43
2023-11-03T01:37:46.973Z,0.60
2023-11-03T01:40:16.289Z,1.05
2023-11-03T01:42:44.586Z,0.95
2023-11-03T01:45:12.905Z,1.23
2023-11-03T01:47:40.786Z,3.13
2023-11-03T01:50:10.346Z,2.78
2023-11-03T01:52:42.092Z,1.47
2023-11-03T01:55:10.070Z,1.48
2023-11-03T01:57:39.519Z,3.38
2023-11-03T02:00:08.663Z,2.33
2023-11-03T02:02:36.658Z,1.60
2023-11-03T02:05:04.728Z,1.63
2023-11-03T02:07:32.647Z,2.55
2023-11-03T02:10:00.738Z,4.07
2023-11-03T02:12:28.734Z,1.35
2023-11-03T02:14:56.650Z,1.13
2023-11-03T02:17:24.916Z,0.93
2023-11-03T02:19:53.435Z,2.63
2023-11-03T02:22:24.637Z,3.35
2023-11-03T02:24:52.664Z,1.43
2023-11-03T02:27:23.626Z,1.25
2023-11-03T02:29:51.524Z,1.25
2023-11-03T02:32:19.622Z,3.22
2023-11-03T02:34:47.600Z,0.90
2023-11-03T02:40:40.113Z,2.80
2023-11-03T02:43:08.691Z,1.27
2023-11-03T02:45:36.663Z,2.03
2023-11-03T02:48:04.878Z,0.73
2023-11-03T02:50:32.747Z,3.20
2023-11-03T02:53:03.645Z,4.90
2023-11-03T02:55:32.117Z,3.13
2023-11-03T02:58:00.013Z,2.03
2023-11-03T03:00:27.871Z,1.63
2023-11-03T03:02:55.808Z,1.42
2023-11-03T03:05:24.616Z,2.70
2023-11-03T03:07:52.567Z,1.07
2023-11-03T03:10:20.563Z,2.15
2023-11-03T03:12:48.962Z,2.03
2023-11-03T03:15:17.042Z,3.07
2023-11-03T03:17:44.893Z,1.88
2023-11-03T03:20:13.124Z,1.25
2023-11-03T03:22:40.978Z,2.65
2023-11-03T03:25:09.418Z,2.97
2023-11-03T03:27:37.960Z,1.27
2023-11-03T03:30:06.189Z,2.75
2023-11-03T03:32:34.259Z,3.77
2023-11-03T03:35:03.395Z,3.75
2023-11-03T03:37:31.467Z,2.28
2023-11-03T03:39:59.397Z,4.30
2023-11-03T03:42:27.352Z,2.63
2023-11-03T03:44:56.130Z,2.60
2023-11-03T03:47:24.085Z,1.63
2023-11-03T03:49:52.074Z,1.73
2023-11-03T03:52:20.054Z,4.50
2023-11-03T03:54:47.911Z,1.30
2023-11-03T03:57:15.961Z,1.30
2023-11-03T03:59:43.839Z,2.58
2023-11-03T04:02:12.835Z,4.00
2023-11-03T04:04:40.797Z,2.20
2023-11-03T04:07:08.775Z,3.42
2023-11-03T04:09:36.643Z,3.13
2023-11-03T04:12:04.561Z,2.67
2023-11-03T04:14:32.379Z,1.90
2023-11-03T04:17:00.321Z,5.07
2023-11-03T04:19:28.208Z,2.80
2023-11-03T04:21:56.072Z,3.57
2023-11-03T04:24:28.309Z,6.05
2023-11-03T04:26:56.273Z,2.67
2023-11-03T04:29:24.814Z,3.17
2023-11-03T04:31:53.461Z,1.83
2023-11-03T04:34:24.156Z,5.40
2023-11-03T04:36:52.357Z,2.22
2023-11-03T04:39:20.242Z,1.60
2023-11-03T04:41:48.197Z,1.67
2023-11-03T04:44:16.102Z,3.47
2023-11-03T04:46:44.028Z,1.80
2023-11-03T04:49:12.267Z,3.05
2023-11-03T04:51:40.382Z,1.75
2023-11-03T04:54:08.764Z,4.57
2023-11-03T04:56:36.745Z,7.18
2023-11-03T04:59:06.658Z,2.42
2023-11-03T05:01:35.042Z,3.85
2023-11-03T05:04:03.056Z,3.87
2023-11-03T05:06:31.051Z,3.53
2023-11-03T05:08:58.922Z,2.50
2023-11-03T05:11:26.833Z,2.37
2023-11-03T05:13:54.973Z,1.60
2023-11-03T05:16:22.849Z,5.45
2023-11-03T05:18:50.675Z,1.90
2023-11-03T05:21:18.577Z,4.72
2023-11-03T05:23:46.442Z,2.03
2023-11-03T05:26:15.117Z,1.75
2023-11-03T05:28:43.080Z,1.63
2023-11-03T05:31:11.581Z,1.30
2023-11-03T05:33:39.480Z,2.22
2023-11-03T05:36:12.251Z,3.50
2023-11-03T05:38:40.280Z,2.35
2023-11-03T05:41:08.888Z,2.28
2023-11-03T05:43:36.680Z,4.20
2023-11-03T05:46:04.599Z,4.70
2023-11-03T05:48:32.890Z,1.92
2023-11-03T05:51:00.779Z,2.00
2023-11-03T05:53:28.699Z,1.80
2023-11-03T05:55:56.549Z,2.38
2023-11-03T05:58:24.391Z,1.90
2023-11-03T06:00:52.252Z,4.20
2023-11-03T06:03:20.250Z,2.38
2023-11-03T06:05:48.420Z,1.75
2023-11-03T06:08:17.081Z,1.80
2023-11-03T06:10:44.971Z,1.25
2023-11-03T06:13:12.811Z,2.78
2023-11-03T06:15:40.624Z,2.13
2023-11-03T06:20:36.242Z,2.35
2023-11-03T06:23:04.107Z,5.25
2023-11-03T06:25:32.012Z,1.43
2023-11-03T06:28:00.107Z,4.32
2023-11-03T06:30:27.939Z,2.88
2023-11-03T06:32:55.811Z,1.10
2023-11-03T06:35:23.648Z,1.17
2023-11-03T06:37:51.523Z,1.88
2023-11-03T06:40:19.524Z,0.80
2023-11-03T06:42:47.500Z,2.50
2023-11-03T06:45:16.475Z,1.00
2023-11-03T06:47:44.346Z,2.35
2023-11-03T06:50:12.216Z,1.23
2023-11-03T06:52:40.687Z,2.05
2023-11-03T06:55:09.961Z,1.60
2023-11-03T06:57:39.159Z,2.77
2023-11-03T07:00:10.724Z,3.75
2023-11-03T07:02:39.873Z,2.72
2023-11-03T07:05:10.101Z,3.58
2023-11-03T07:07:38.894Z,0.90
2023-11-03T07:10:08.220Z,3.30
2023-11-03T07:12:36.153Z,2.47
2023-11-03T07:15:05.598Z,2.37
2023-11-03T07:17:33.581Z,2.13
2023-11-03T07:20:07.124Z,2.90
2023-11-03T07:22:35.390Z,2.87
2023-11-03T07:25:03.760Z,2.22
2023-11-03T07:27:31.966Z,1.10
2023-11-03T07:29:59.885Z,2.25
2023-11-03T07:32:29.620Z,1.63
2023-11-03T07:34:57.991Z,2.42
2023-11-03T07:37:26.615Z,1.27
2023-11-03T07:39:55.307Z,2.20
2023-11-03T07:42:23.154Z,1.63
2023-11-03T07:44:51.686Z,1.83
2023-11-03T07:47:19.567Z,3.63
2023-11-03T07:49:47.510Z,2.47
2023-11-03T07:52:15.485Z,1.48
2023-11-03T07:54:44.325Z,2.70
2023-11-03T07:57:12.577Z,1.23
2023-11-03T07:59:43.661Z,1.42
2023-11-03T08:02:12.225Z,4.40
2023-11-03T08:04:42.460Z,4.30
2023-11-03T08:07:10.638Z,2.15
2023-11-03T08:09:38.772Z,2.25
2023-11-03T08:12:08.409Z,1.37
2023-11-03T08:14:36.604Z,2.50
2023-11-03T08:17:05.271Z,2.13
2023-11-03T08:19:33.266Z,3.20
2023-11-03T08:22:01.227Z,2.83
2023-11-03T08:24:29.545Z,2.70
2023-11-03T08:26:57.411Z,3.72
2023-11-03T08:29:25.282Z,4.77
2023-11-03T08:31:53.533Z,3.65
2023-11-03T08:34:21.517Z,5.00
2023-11-03T08:36:49.538Z,5.00
2023-11-03T08:39:27.511Z,5.05
2023-11-03T08:41:58.209Z,9.93
2023-11-03T08:44:27.263Z,4.68
2023-11-03T08:46:55.127Z,7.50
2023-11-03T08:49:23.093Z,4.03
2023-11-03T08:51:51.095Z,5.90
2023-11-03T08:54:19.758Z,4.57
2023-11-03T08:56:48.487Z,6.57
2023-11-03T08:59:16.399Z,7.85
2023-11-03T09:01:45.093Z,5.47
2023-11-03T09:04:13.208Z,7.85
2023-11-03T09:06:41.244Z,8.80
2023-11-03T09:09:09.408Z,7.07
2023-11-03T09:11:37.388Z,6.27
2023-11-03T09:14:07.782Z,4.97
2023-11-03T09:16:36.762Z,4.15
2023-11-03T09:19:04.835Z,6.37
2023-11-03T09:21:32.765Z,5.65
2023-11-03T09:24:03.740Z,7.15
2023-11-03T09:26:31.578Z,9.53
2023-11-03T09:28:59.468Z,8.90
2023-11-03T09:31:27.483Z,4.60
2023-11-03T09:33:59.573Z,7.47
2023-11-03T09:36:27.540Z,7.20
2023-11-03T09:38:56.135Z,6.15
2023-11-03T09:41:24.769Z,3.75
2023-11-03T09:43:52.709Z,5.60
2023-11-03T09:46:20.649Z,8.73
2023-11-03T09:48:49.858Z,9.63
2023-11-03T09:51:17.921Z,7.53
2023-11-03T09:53:47.155Z,4.60
2023-11-03T09:56:15.036Z,16.38
2023-11-03T09:58:42.886Z,13.23
2023-11-03T10:01:19.589Z,7.77
2023-11-03T10:03:49.007Z,10.05
2023-11-03T10:06:17.012Z,7.03
2023-11-03T10:08:45.570Z,12.93
2023-11-03T10:11:13.815Z,10.45
2023-11-03T10:13:41.777Z,8.98
2023-11-03T10:16:09.764Z,13.53
2023-11-03T10:18:40.813Z,12.23
2023-11-03T10:21:10.551Z,7.38
2023-11-03T10:23:38.906Z,13.45
2023-11-03T10:26:07.346Z,6.63
2023-11-03T10:28:35.449Z,15.38
2023-11-03T10:31:05.458Z,9.95
2023-11-03T10:33:35.875Z,6.97
2023-11-03T10:36:05.034Z,10.75
2023-11-03T10:38:32.888Z,8.50
2023-11-03T10:41:03.221Z,12.47
2023-11-03T10:43:31.106Z,7.65
2023-11-03T10:46:03.950Z,10.10
2023-11-03T10:48:47.602Z,10.80
2023-11-03T10:51:18.729Z,14.10
2023-11-03T10:53:54.311Z,8.73
2023-11-03T10:56:37.760Z,16.75
2023-11-03T10:59:12.724Z,13.40
2023-11-03T11:01:43.452Z,10.98
2023-11-03T11:04:14.541Z,7.63
2023-11-03T11:06:42.943Z,8.17
2023-11-03T11:09:10.756Z,11.52
2023-11-03T11:11:39.185Z,11.32
2023-11-03T11:14:24.193Z,6.18
2023-11-03T11:17:01.882Z,9.93
2023-11-03T11:19:46.043Z,8.15
2023-11-03T11:22:19.731Z,12.13
2023-11-03T11:24:49.152Z,8.40
2023-11-03T11:27:17.693Z,12.65
2023-11-03T11:29:46.591Z,18.20
2023-11-03T11:32:15.025Z,6.93
2023-11-03T11:34:43.514Z,9.55
2023-11-03T11:37:30.785Z,12.75
2023-11-03T11:39:59.397Z,15.98
2023-11-03T11:42:28.910Z,11.37
2023-11-03T11:44:56.911Z,12.45
2023-11-03T11:47:24.859Z,7.38
2023-11-03T11:49:54.062Z,11.67
2023-11-03T11:52:28.009Z,11.15
2023-11-03T11:54:57.564Z,8.18
2023-11-03T11:57:28.836Z,7.60
2023-11-03T11:59:57.016Z,7.13
2023-11-03T12:02:25.679Z,9.77
2023-11-03T12:04:54.572Z,12.05
2023-11-03T12:07:23.627Z,5.80
2023-11-03T12:09:52.844Z,9.88
2023-11-03T12:12:20.800Z,7.63
2023-11-03T12:14:48.718Z,8.63
2023-11-03T12:17:17.039Z,9.10
2023-11-03T12:19:48.137Z,8.27
2023-11-03T12:22:22.644Z,8.73
2023-11-03T12:24:57.546Z,9.07
2023-11-03T12:27:25.677Z,8.15
2023-11-03T12:30:03.074Z,12.95
2023-11-03T12:32:32.529Z,10.17
2023-11-03T12:35:00.592Z,8.18
2023-11-03T12:37:29.688Z,9.13
2023-11-03T12:39:57.936Z,7.20
2023-11-03T12:42:27.281Z,12.02
2023-11-03T12:44:57.528Z,9.35
2023-11-03T12:47:39.164Z,8.97
2023-11-03T12:50:26.022Z,6.93
2023-11-03T12:52:57.338Z,9.30
2023-11-03T12:55:27.083Z,9.43
2023-11-03T12:57:56.089Z,10.30
2023-11-03T13:00:29.251Z,8.75
2023-11-03T13:02:57.271Z,9.65
2023-11-03T13:05:26.705Z,8.93
2023-11-03T13:07:56.600Z,11.55
2023-11-03T13:10:25.052Z,9.40
2023-11-03T13:12:52.912Z,6.67
2023-11-03T13:15:21.030Z,7.07
2023-11-03T13:17:50.257Z,9.82
2023-11-03T13:20:19.700Z,8.48
2023-11-03T13:22:49.268Z,7.07
2023-11-03T13:25:17.472Z,13.70
2023-11-03T13:27:45.433Z,7.15
2023-11-03T13:30:13.572Z,10.83
2023-11-03T13:32:51.016Z,7.60
2023-11-03T13:35:20.088Z,8.85
2023-11-03T13:37:48.046Z,4.17
2023-11-03T13:40:17.298Z,6.78
2023-11-03T13:42:45.279Z,6.78
2023-11-03T13:45:13.746Z,4.35
2023-11-03T13:47:41.763Z,11.40
2023-11-03T13:50:18.098Z,7.90
2023-11-03T13:52:50.020Z,4.38
2023-11-03T13:55:21.303Z,5.47
2023-11-03T13:57:49.338Z,9.25
2023-11-03T14:00:17.481Z,6.90
2023-11-03T14:02:45.425Z,9.63
2023-11-03T14:05:13.474Z,3.53
2023-11-03T14:07:41.688Z,8.95
2023-11-03T14:10:10.615Z,10.13
2023-11-03T14:12:40.345Z,8.40
2023-11-03T14:15:08.585Z,6.13
2023-11-03T14:17:39.178Z,10.90
2023-11-03T14:20:08.285Z,8.80
2023-11-03T14:22:36.121Z,11.02
2023-11-03T14:25:04.908Z,7.50
2023-11-03T14:27:35.920Z,7.07
2023-11-03T14:30:04.362Z,9.35
2023-11-03T14:32:32.178Z,11.13
2023-11-03T14:35:00.068Z,5.22
2023-11-03T14:37:28.204Z,13.87
2023-11-03T14:39:56.079Z,10.50
2023-11-03T14:42:24.000Z,10.30
2023-11-03T14:44:51.846Z,10.07
2023-11-03T14:47:19.737Z,12.65
2023-11-03T14:49:47.617Z,9.68
2023-11-03T14:52:15.612Z,7.87
2023-11-03T14:54:43.634Z,11.20
2023-11-03T14:57:11.514Z,9.02
2023-11-03T14:59:39.360Z,9.48
2023-11-03T15:02:08.099Z,8.53
2023-11-03T15:04:36.352Z,15.82
2023-11-03T15:07:04.956Z,10.30
2023-11-03T15:09:34.850Z,7.23
2023-11-03T15:12:02.746Z,10.55
2023-11-03T15:14:30.685Z,7.80
2023-11-03T15:16:58.584Z,6.87
2023-11-03T15:19:32.205Z,8.52
2023-11-03T15:22:00.247Z,9.65
2023-11-03T15:24:28.416Z,9.23
2023-11-03T15:26:57.259Z,8.07
2023-11-03T15:29:25.310Z,7.32
2023-11-03T15:31:53.128Z,5.40
2023-11-03T15:34:22.425Z,9.93
2023-11-03T15:36:50.351Z,9.55
2023-11-03T15:39:35.721Z,8.90
2023-11-03T15:42:05.394Z,10.97
2023-11-03T15:44:33.473Z,6.70
2023-11-03T15:47:01.379Z,4.13
2023-11-03T15:49:31.035Z,9.65
2023-11-03T15:51:59.434Z,7.77
2023-11-03T15:54:28.627Z,13.45
2023-11-03T15:56:56.854Z,11.23
2023-11-03T15:59:24.739Z,5.97
2023-11-03T16:01:53.304Z,9.63
2023-11-03T16:04:25.309Z,9.27
2023-11-03T16:06:53.494Z,7.20
2023-11-03T16:09:23.434Z,10.32
2023-11-03T16:11:53.464Z,5.63
2023-11-03T16:14:21.456Z,10.55
2023-11-03T16:16:49.374Z,7.80
2023-11-03T16:19:17.703Z,13.23
2023-11-03T16:21:45.689Z,10.55
2023-11-03T16:24:13.646Z,8.00
2023-11-03T16:26:42.270Z,11.45
2023-11-03T16:29:10.988Z,7.13
2023-11-03T16:31:39.062Z,5.50
2023-11-03T16:34:07.519Z,6.55
2023-11-03T16:36:38.972Z,8.57
2023-11-03T16:39:08.922Z,5.78
2023-11-03T16:41:36.882Z,7.53
2023-11-03T16:44:10.027Z,8.30
2023-11-03T16:46:39.073Z,11.18
2023-11-03T16:49:10.014Z,6.87
2023-11-03T16:51:44.412Z,9.05
2023-11-03T16:54:15.728Z,8.07
2023-11-03T16:56:43.762Z,9.60
2023-11-03T16:59:12.733Z,6.80
2023-11-03T17:01:41.342Z,9.77
2023-11-03T17:04:12.436Z,8.95
2023-11-03T17:06:41.815Z,7.73
2023-11-03T17:09:12.812Z,4.68
2023-11-03T17:11:40.649Z,7.70
2023-11-03T17:14:08.508Z,7.17
2023-11-03T17:16:36.795Z,4.78
2023-11-03T17:19:07.782Z,5.10
2023-11-03T17:21:35.814Z,9.57
2023-11-03T17:24:04.772Z,7.32
2023-11-03T17:26:32.752Z,7.05
2023-11-03T17:29:00.685Z,7.93
2023-11-03T17:31:30.117Z,6.77
2023-11-03T17:33:58.103Z,9.63
2023-11-03T17:36:29.039Z,6.82
2023-11-03T17:38:57.073Z,4.23
2023-11-03T17:41:26.267Z,12.48
2023-11-03T17:43:54.182Z,7.93
2023-11-03T17:46:22.097Z,9.07
2023-11-03T17:48:50.560Z,8.57
2023-11-03T17:51:18.547Z,9.75
2023-11-03T17:53:47.208Z,6.43
2023-11-03T17:56:15.616Z,6.10
2023-11-03T17:58:43.833Z,7.75
2023-11-03T18:01:12.453Z,7.05
2023-11-03T18:03:40.432Z,7.70
2023-11-03T18:06:08.360Z,7.13
2023-11-03T18:08:36.206Z,6.63
2023-11-03T18:11:04.867Z,8.70
2023-11-03T18:13:33.168Z,6.85
2023-11-03T18:16:01.329Z,7.97
2023-11-03T18:18:29.257Z,8.70
2023-11-03T18:20:57.278Z,7.10
2023-11-03T18:23:27.689Z,8.35
2023-11-03T18:25:56.655Z,5.18
2023-11-03T18:28:25.005Z,8.57
2023-11-03T18:30:53.016Z,7.88
2023-11-03T18:33:21.882Z,5.93
2023-11-03T18:35:50.583Z,3.47
2023-11-03T18:38:19.182Z,6.07
2023-11-03T18:40:49.926Z,9.10
2023-11-03T18:43:19.939Z,4.63
2023-11-03T18:45:47.937Z,4.80
2023-11-03T18:48:16.178Z,7.70
2023-11-03T18:51:24.280Z,6.93
2023-11-03T18:57:10.906Z,2.90
2023-11-03T19:00:21.799Z,7.57
2023-11-03T19:02:18.619Z,5.07
2023-11-03T19:05:35.464Z,5.80
2023-11-03T19:07:34.554Z,8.77
2023-11-03T19:10:09.706Z,4.25
2023-11-03T19:12:37.639Z,7.80
2023-11-03T19:15:08.429Z,4.05
2023-11-03T19:17:38.757Z,11.00
2023-11-03T19:20:11.600Z,6.80
2023-11-03T19:22:39.840Z,6.95
2023-11-03T19:25:08.080Z,7.85
2023-11-03T19:27:35.891Z,8.47
2023-11-03T19:30:04.049Z,7.38
2023-11-03T19:32:34.687Z,6.60
2023-11-03T19:35:02.492Z,7.88
2023-11-03T19:37:31.571Z,4.90
2023-11-03T19:39:59.365Z,10.02
2023-11-03T19:42:27.285Z,6.28
2023-11-03T19:44:55.492Z,6.03
2023-11-03T19:47:23.441Z,4.97
2023-11-03T19:49:51.312Z,6.50
2023-11-03T19:52:19.216Z,6.33
2023-11-03T19:54:47.581Z,3.90
2023-11-03T19:57:15.509Z,12.40
2023-11-03T19:59:43.437Z,6.95
2023-11-03T20:02:11.258Z,8.13
2023-11-03T20:04:39.085Z,6.88
2023-11-03T20:07:10.204Z,4.43
2023-11-03T20:09:41.280Z,5.17
2023-11-03T20:12:11.857Z,5.95
2023-11-03T20:14:43.004Z,6.97
2023-11-03T20:17:11.189Z,4.33
2023-11-03T20:19:41.690Z,11.93
2023-11-03T20:22:10.588Z,6.30
2023-11-03T20:24:38.983Z,4.95
2023-11-03T20:27:07.092Z,2.73
2023-11-03T20:29:35.005Z,7.10
2023-11-03T20:32:04.025Z,2.72
2023-11-03T20:34:32.137Z,4.80
2023-11-03T20:37:00.474Z,3.22
2023-11-03T20:39:28.339Z,3.78
2023-11-03T20:41:56.233Z,2.60
2023-11-03T20:44:24.271Z,4.35
2023-11-03T20:46:52.189Z,8.38
2023-11-03T20:49:20.790Z,5.03
2023-11-03T20:51:48.711Z,6.27
2023-11-03T20:54:16.867Z,6.97
2023-11-03T20:56:50.689Z,3.17
2023-11-03T20:59:20.056Z,4.90
2023-11-03T21:01:48.091Z,3.42
2023-11-03T21:04:16.269Z,4.05
2023-11-03T21:06:44.302Z,4.87
2023-11-03T21:09:14.479Z,4.20
2023-11-03T21:11:42.404Z,5.30
2023-11-03T21:14:10.593Z,3.45
2023-11-03T21:16:38.673Z,3.67
2023-11-03T21:19:07.532Z,5.28
2023-11-03T21:21:36.260Z,3.17
2023-11-03T21:24:04.292Z,2.80
2023-11-03T21:26:32.132Z,2.28
2023-11-03T21:29:03.056Z,2.92
2023-11-03T21:31:32.042Z,4.20
2023-11-03T21:34:00.610Z,5.15
2023-11-03T21:36:28.601Z,5.75
2023-11-03T21:38:57.759Z,4.32
2023-11-03T21:41:25.783Z,5.17
2023-11-03T21:43:54.029Z,6.85
2023-11-03T21:46:27.677Z,2.30
2023-11-03T21:48:55.963Z,2.87
2023-11-03T21:51:23.904Z,6.43
2023-11-03T21:53:51.740Z,2.97
2023-11-03T21:56:19.616Z,2.03
2023-11-03T21:58:48.977Z,3.78
2023-11-03T22:01:17.314Z,2.65
2023-11-03T22:03:46.671Z,6.18
2023-11-03T22:06:14.681Z,1.53
2023-11-03T22:08:47.254Z,3.80
2023-11-03T22:11:17.152Z,4.40
2023-11-03T22:13:45.013Z,2.27
2023-11-03T22:16:13.304Z,2.25
2023-11-03T22:18:41.813Z,3.63
2023-11-03T22:21:16.493Z,2.97
2023-11-03T22:23:45.531Z,2.08
2023-11-03T22:26:19.237Z,3.47
2023-11-03T22:28:48.904Z,3.33
2023-11-03T22:31:16.776Z,8.50
2023-11-03T22:33:45.382Z,2.45
2023-11-03T22:36:13.428Z,2.47
2023-11-03T22:38:41.397Z,1.80
2023-11-03T22:41:10.685Z,4.75
2023-11-03T22:43:41.857Z,4.40
2023-11-03T22:46:09.761Z,2.43
2023-11-03T22:48:37.834Z,6.15
2023-11-03T22:51:07.736Z,4.25
2023-11-03T22:53:35.769Z,3.78
2023-11-03T22:56:03.633Z,5.03
2023-11-03T22:58:31.512Z,3.78
2023-11-03T23:00:59.577Z,6.53
2023-11-03T23:03:27.435Z,3.80
2023-11-03T23:05:55.318Z,4.07
2023-11-03T23:08:23.142Z,3.15
2023-11-03T23:10:51.107Z,5.13
2023-11-03T23:13:18.939Z,3.90
2023-11-03T23:15:46.866Z,5.18
2023-11-03T23:18:14.889Z,3.20
2023-11-03T23:20:43.043Z,5.23
2023-11-03T23:23:10.973Z,4.53
2023-11-03T23:25:38.793Z,4.35
2023-11-03T23:28:06.876Z,4.87
2023-11-03T23:30:34.772Z,3.22
2023-11-03T23:33:04.044Z,4.82
2023-11-03T23:35:32.004Z,6.87
2023-11-03T23:37:59.929Z,7.70
2023-11-03T23:40:27.932Z,4.47
2023-11-03T23:42:55.758Z,6.45
2023-11-03T23:45:23.882Z,3.70
2023-11-03T23:47:51.913Z,6.65
2023-11-03T23:50:19.795Z,3.72
2023-11-03T23:52:47.617Z,3.70
2023-11-03T23:55:15.869Z,2.42
2023-11-03T23:57:44.076Z,4.18
